Placerville, CA

3:55 PM PST en Diciembre 21, 2014 (GMT -0800)
Lincoln Regional-Harder | Change Station
CLOSE
Current Station
Aeropuerto
Location: Lincoln,
Altura: 121 ft
Estaciones meteorológicas cercanas

Alt 121 ft 38.91 °N, 121.35 °W | Updated 20 minutes ago

Muy nublado
Muy nublado
63 ° F
Sensación térmica 63 ° F
N
5
Viento Variable Viento desde SSE

Hoy
Alta -- | Baja -- ° F
--% Posibilidad de precipitaciones
Ayer
Alta -- | Baja -- ° F
Precip. -- pul
7:17 AM 4:44 PM
Creciente menguante, 0% visible
Presión 30.23 pul
Visibilidad 10.0 Millas
Nubes Despejado
Punto de rocío 54 ° F
Humedad 72%
Precipitaciones 0.00 pul
Espesor de la nieve No disponible.
UV 1 de una escala de 12
Polen 3.30 de una escala de 12
Calidad del aire No disponible.
Flu Activity No disponible.
METAR KLHM 212335Z AUTO 15004KT 10SM CLR 17/12 A3023 RMK AO1

More Conditions Fewer Conditions

Presión 30.23 pul
Visibilidad 10.0 Millas
Nubes Despejado
Punto de rocío 54 ° F
Humedad 72%
Precipitaciones 0.00 pul
Espesor de la nieve No disponible.
UV 1 de una escala de 12
Polen 3.30 de una escala de 12
Calidad del aire No disponible.
Flu Activity No disponible.
METAR KLHM 212335Z AUTO 15004KT 10SM CLR 17/12 A3023 RMK AO1

More Conditions Fewer Conditions

10-Day Weather Forecast

Almanac

Astronomía

Dec. 21, 2014 Salida Puesta
Hora real
Crepúsculo civil
Crepúsculo náutico
Crepúsculo astronómico
Luna
Horas de luz
Horas de luz
Tomorrow will be .
, % of the Moon is Illuminated

Extremos de hoy

Máximos del estado Bajos del estado

Community

WunderPhotos

Upload Photos

1,779,505 ¡fotos cargadas!

WunderBlogs® & News

Nearby

Calidad del aire

  Calidad del aire Índice AQ Contaminante
Not available.

Grosos de nieve

Estación Profundido Altura

Actividad de terremotos

Ciudad Distance Mag. Tiempo y dato
Magnitud mínima muestra es 2,5.

Temperaturas de aguas costeras

Lugar Temperatura

Estaciones meteorológicas cercanas